createdAt,value
2022-12-25T00:02:18.022Z,98210.28
2022-12-25T00:04:45.908Z,98200.00
2022-12-25T00:07:13.987Z,98204.56
2022-12-25T00:09:42.276Z,98208.63
2022-12-25T00:12:10.180Z,98204.44
2022-12-25T00:14:39.445Z,98202.22
2022-12-25T00:17:07.747Z,98212.25
2022-12-25T00:19:35.702Z,98214.47
2022-12-25T00:22:03.575Z,98216.56
2022-12-25T00:24:31.882Z,98215.28
2022-12-25T00:27:00.162Z,98210.16
2022-12-25T00:29:27.950Z,98209.09
2022-12-25T00:31:57.257Z,98205.59
2022-12-25T00:34:25.296Z,98202.91
2022-12-25T00:36:53.677Z,98202.09
2022-12-25T00:39:21.605Z,98201.28
2022-12-25T00:42:07.043Z,98210.16
2022-12-25T00:44:35.741Z,98203.75
2022-12-25T00:47:05.403Z,98198.38
2022-12-25T00:49:33.260Z,98192.19
2022-12-25T00:52:01.886Z,98194.06
2022-12-25T00:54:29.781Z,98197.56
2022-12-25T00:56:57.577Z,98191.38
2022-12-25T00:59:25.427Z,98187.88
2022-12-25T01:01:53.638Z,98192.19
2022-12-25T01:04:22.938Z,98197.56
2022-12-25T01:06:51.334Z,98195.09
2022-12-25T01:09:36.520Z,98191.25
2022-12-25T01:12:04.959Z,98191.03
2022-12-25T01:14:37.047Z,98189.63
2022-12-25T01:17:05.460Z,98184.25
2022-12-25T01:19:34.646Z,98189.63
2022-12-25T01:22:02.741Z,98202.22
2022-12-25T01:24:31.109Z,98200.34
2022-12-25T01:26:58.948Z,98197.66
2022-12-25T01:29:27.597Z,98202.00
2022-12-25T01:31:56.009Z,98221.34
2022-12-25T01:34:23.897Z,98209.56
2022-12-25T01:36:53.156Z,98218.44
2022-12-25T01:39:21.797Z,98212.84
2022-12-25T01:41:49.743Z,98212.25
2022-12-25T01:44:56.856Z,98216.22
2022-12-25T01:47:25.081Z,98224.28
2022-12-25T01:49:52.920Z,98226.38
2022-12-25T01:52:25.000Z,98227.19
2022-12-25T01:54:56.628Z,98232.56
2022-12-25T01:57:27.079Z,98226.13
2022-12-25T01:59:56.148Z,98225.31
2022-12-25T02:02:24.518Z,98226.13
2022-12-25T02:04:59.833Z,98220.78
2022-12-25T02:07:30.947Z,98221.13
2022-12-25T02:09:58.766Z,98217.63
2022-12-25T02:12:29.980Z,98235.13
2022-12-25T02:15:05.776Z,98222.75
2022-12-25T02:17:41.757Z,98231.97
2022-12-25T02:20:38.807Z,98230.47
2022-12-25T02:23:35.071Z,98219.13
2022-12-25T02:26:16.795Z,98219.38
2022-12-25T02:28:53.246Z,98217.97
2022-12-25T02:31:31.161Z,98208.06
2022-12-25T02:34:05.387Z,98204.56
2022-12-25T02:36:38.796Z,98212.03
2022-12-25T02:39:32.283Z,98210.38
2022-12-25T02:42:03.597Z,98213.31
2022-12-25T02:44:54.291Z,98215.41
2022-12-25T02:47:40.017Z,98208.97
2022-12-25T02:50:27.664Z,98205.03
2022-12-25T02:53:17.344Z,98196.38
2022-12-25T02:56:05.894Z,98199.06
2022-12-25T02:58:56.293Z,98196.38
2022-12-25T03:01:47.823Z,98207.94
2022-12-25T03:04:37.329Z,98211.66
2022-12-25T03:07:09.509Z,98209.91
2022-12-25T03:09:59.325Z,98207.94
2022-12-25T03:12:38.595Z,98207.94
2022-12-25T03:15:35.283Z,98207.13
2022-12-25T03:18:08.604Z,98203.84
2022-12-25T03:20:55.796Z,98203.63
2022-12-25T03:23:46.798Z,98191.72
2022-12-25T03:26:32.466Z,98188.44
2022-12-25T03:29:00.448Z,98193.22
2022-12-25T03:31:36.710Z,98186.22
2022-12-25T03:34:44.971Z,98192.31
2022-12-25T03:37:47.155Z,98194.97
2022-12-25T03:40:39.133Z,98186.34
2022-12-25T03:43:31.266Z,98182.84
2022-12-25T03:46:23.428Z,98175.03
2022-12-25T03:49:12.907Z,98169.66
2022-12-25T03:52:02.705Z,98164.31
2022-12-25T03:54:51.990Z,98167.00
2022-12-25T03:57:37.402Z,98162.91
2022-12-25T04:00:24.064Z,98163.72
2022-12-25T04:03:09.816Z,98169.09
2022-12-25T04:05:55.581Z,98167.00
2022-12-25T04:08:42.664Z,98146.81
2022-12-25T04:11:28.168Z,98143.06
2022-12-25T04:14:13.428Z,98143.88
2022-12-25T04:16:58.674Z,98143.66
2022-12-25T04:19:44.119Z,98146.34
2022-12-25T04:22:29.456Z,98138.06
2022-12-25T04:25:16.556Z,98135.13
2022-12-25T04:28:03.087Z,98144.00
2022-12-25T04:30:48.834Z,98144.59
2022-12-25T04:33:34.901Z,98143.31
2022-12-25T04:36:12.118Z,98135.25
2022-12-25T04:38:41.624Z,98139.22
2022-12-25T04:41:12.813Z,98122.53
2022-12-25T04:43:40.921Z,98134.56
2022-12-25T04:46:08.905Z,98140.16
2022-12-25T04:48:38.339Z,98135.03
2022-12-25T04:51:14.957Z,98138.53
2022-12-25T04:53:43.215Z,98134.44
2022-12-25T04:56:12.820Z,98126.88
2022-12-25T04:58:40.757Z,98127.91
2022-12-25T05:01:09.203Z,98134.31
2022-12-25T05:03:37.636Z,98133.88
2022-12-25T05:06:06.708Z,98128.16
2022-12-25T05:08:35.884Z,98115.22
2022-12-25T05:11:07.251Z,98116.03
2022-12-25T05:13:36.751Z,98117.41
2022-12-25T05:16:06.885Z,98112.28
2022-12-25T05:18:34.738Z,98110.41
2022-12-25T05:21:03.111Z,98107.75
2022-12-25T05:23:31.430Z,98100.28
2022-12-25T05:25:59.687Z,98106.47
2022-12-25T05:28:28.153Z,98095.72
2022-12-25T05:30:58.949Z,98103.53
2022-12-25T05:33:26.865Z,98100.38
2022-12-25T05:35:55.154Z,98093.38
2022-12-25T05:38:23.012Z,98088.84
2022-12-25T05:40:53.134Z,98094.56
2022-12-25T05:43:21.207Z,98091.28
2022-12-25T05:45:49.113Z,98088.13
2022-12-25T05:48:18.739Z,98086.03
2022-12-25T05:50:46.728Z,98090.34
2022-12-25T05:53:16.901Z,98093.84
2022-12-25T05:55:45.652Z,98077.63
2022-12-25T05:58:14.354Z,98068.03
2022-12-25T06:00:44.744Z,98070.94
2022-12-25T06:03:12.781Z,98067.44
2022-12-25T06:05:42.394Z,98080.63
2022-12-25T06:08:12.888Z,98066.63
2022-12-25T06:10:40.792Z,98067.69
2022-12-25T06:13:08.609Z,98064.41
2022-12-25T06:15:40.747Z,98067.34
2022-12-25T06:18:09.418Z,98067.00
2022-12-25T06:20:37.876Z,98071.66
2022-12-25T06:23:07.162Z,98067.22
2022-12-25T06:25:34.972Z,98067.81
2022-12-25T06:28:02.746Z,98055.44
2022-12-25T06:30:31.103Z,98060.81
2022-12-25T06:32:59.963Z,98052.53
2022-12-25T06:35:28.377Z,98038.34
2022-12-25T06:37:57.226Z,98048.28
2022-12-25T06:40:26.565Z,98056.34
2022-12-25T06:42:54.691Z,98043.72
2022-12-25T06:45:23.174Z,98041.28
2022-12-25T06:47:51.099Z,98046.41
2022-12-25T06:50:18.966Z,98052.59
2022-12-25T06:52:47.108Z,98059.84
2022-12-25T06:55:15.113Z,98059.25
2022-12-25T06:57:44.337Z,98055.28
2022-12-25T07:00:13.110Z,98063.06
2022-12-25T07:02:47.690Z,98057.69
2022-12-25T07:05:16.030Z,98062.81
2022-12-25T07:07:43.867Z,98071.22
2022-12-25T07:10:12.472Z,98069.13
2022-12-25T07:12:40.949Z,98070.50
2022-12-25T07:15:11.622Z,98066.75
2022-12-25T07:17:39.855Z,98079.94
2022-12-25T07:20:09.016Z,98081.00
2022-12-25T07:22:37.259Z,98084.25
2022-12-25T07:25:05.522Z,98090.78
2022-12-25T07:27:33.374Z,98084.03
2022-12-25T07:30:01.579Z,98080.53
2022-12-25T07:32:32.639Z,98082.41
2022-12-25T07:35:00.494Z,98079.94
2022-12-25T07:37:28.708Z,98076.69
2022-12-25T07:39:56.751Z,98078.09
2022-12-25T07:42:25.581Z,98067.34
2022-12-25T07:44:53.530Z,98057.91
2022-12-25T07:47:21.663Z,98049.84
2022-12-25T07:49:51.391Z,98059.19
2022-12-25T07:52:19.193Z,98052.53
2022-12-25T07:54:47.057Z,98050.66
2022-12-25T07:57:15.328Z,98044.47
2022-12-25T07:59:43.235Z,98035.38
2022-12-25T08:02:11.705Z,98029.19
2022-12-25T08:04:40.139Z,98019.84
2022-12-25T08:07:09.266Z,98011.28
2022-12-25T08:09:37.368Z,98008.13
2022-12-25T08:12:05.915Z,98004.72
2022-12-25T08:14:33.717Z,98010.50
2022-12-25T08:17:01.994Z,98016.88
2022-12-25T08:19:30.546Z,98028.03
2022-12-25T08:21:58.665Z,98042.88
2022-12-25T08:24:28.111Z,98035.13
2022-12-25T08:26:56.181Z,98040.84
2022-12-25T08:29:24.062Z,98045.97
2022-12-25T08:31:52.328Z,98045.97
2022-12-25T08:34:20.234Z,98054.28
2022-12-25T08:36:48.136Z,98040.84
2022-12-25T08:39:16.684Z,98045.16
2022-12-25T08:41:45.834Z,98058.59
2022-12-25T08:44:14.175Z,98069.91
2022-12-25T08:46:42.204Z,98063.47
2022-12-25T08:49:10.157Z,98071.06
2022-12-25T08:51:39.093Z,98068.13
2022-12-25T08:54:07.696Z,98053.41
2022-12-25T08:56:36.623Z,98049.69
2022-12-25T08:59:05.884Z,98049.78
2022-12-25T09:01:34.613Z,98055.25
2022-12-25T09:04:02.497Z,98051.81
2022-12-25T09:06:30.394Z,98047.91
2022-12-25T09:08:58.914Z,98037.72
2022-12-25T09:11:26.741Z,98035.13
2022-12-25T09:13:54.666Z,98022.06
2022-12-25T09:16:24.700Z,98022.16
2022-12-25T09:18:52.600Z,98009.38
2022-12-25T09:21:20.815Z,98000.63
2022-12-25T09:23:50.601Z,97988.03
2022-12-25T09:26:20.341Z,97988.09
2022-12-25T09:28:51.834Z,97982.78
2022-12-25T09:31:21.077Z,97991.47
2022-12-25T09:33:50.695Z,97995.03
2022-12-25T09:36:18.825Z,98003.66
2022-12-25T09:38:46.950Z,98009.38
2022-12-25T09:41:19.432Z,97999.97
2022-12-25T09:43:51.660Z,97999.78
2022-12-25T09:46:22.546Z,98009.28
2022-12-25T09:49:02.820Z,98009.66
2022-12-25T09:51:35.345Z,98007.03
2022-12-25T09:54:10.907Z,98009.25
2022-12-25T09:56:39.205Z,98010.16
2022-12-25T09:59:19.884Z,98008.63
2022-12-25T10:02:21.758Z,98008.78
2022-12-25T10:05:06.719Z,98013.44
2022-12-25T10:07:44.868Z,98005.19
2022-12-25T10:10:27.458Z,98010.13
2022-12-25T10:13:06.121Z,98013.19
2022-12-25T10:15:45.054Z,98013.53
2022-12-25T10:18:37.021Z,98012.81
2022-12-25T10:21:13.406Z,98007.47
2022-12-25T10:23:45.297Z,97991.56
2022-12-25T10:26:16.874Z,97987.50
2022-12-25T10:28:46.978Z,97973.72
2022-12-25T10:31:22.450Z,97977.00
2022-12-25T10:33:52.760Z,97976.78
2022-12-25T10:36:26.205Z,97974.34
2022-12-25T10:38:55.271Z,97972.44
2022-12-25T10:41:50.929Z,97969.47
2022-12-25T10:44:20.931Z,97973.00
2022-12-25T10:46:50.365Z,97958.94
2022-12-25T10:49:20.841Z,97959.47
2022-12-25T10:51:51.808Z,97960.56
2022-12-25T10:54:25.873Z,97956.81
2022-12-25T10:56:55.648Z,97953.59
2022-12-25T10:59:24.143Z,97949.00
2022-12-25T11:01:55.234Z,97946.06
2022-12-25T11:04:28.683Z,97942.00
2022-12-25T11:07:00.570Z,97938.75
2022-12-25T11:09:28.849Z,97924.69
2022-12-25T11:11:57.087Z,97924.69
2022-12-25T11:14:25.616Z,97926.31
2022-12-25T11:16:53.422Z,97926.03
2022-12-25T11:19:30.538Z,97916.84
2022-12-25T11:22:01.755Z,97914.94
2022-12-25T11:24:31.970Z,97909.25
2022-12-25T11:27:02.986Z,97907.09
2022-12-25T11:29:39.374Z,97903.06
2022-12-25T11:32:17.601Z,97908.47
2022-12-25T11:34:48.098Z,97908.22
2022-12-25T11:37:21.271Z,97914.16
2022-12-25T11:39:49.504Z,97905.50
2022-12-25T11:42:24.137Z,97907.41
2022-12-25T11:44:58.290Z,97907.94
2022-12-25T11:47:32.336Z,97899.28
2022-12-25T11:50:06.294Z,97894.41
2022-12-25T11:52:38.643Z,97892.50
2022-12-25T11:55:19.814Z,97888.72
2022-12-25T11:57:54.419Z,97878.16
2022-12-25T12:00:23.147Z,97881.94
2022-12-25T12:02:58.939Z,97878.63
2022-12-25T12:05:33.738Z,97875.03
2022-12-25T12:08:05.527Z,97866.28
2022-12-25T12:10:58.489Z,97862.16
2022-12-25T12:13:41.195Z,97860.19
2022-12-25T12:16:11.148Z,97860.69
2022-12-25T12:18:38.975Z,97842.50
2022-12-25T12:21:11.330Z,97827.75
2022-12-25T12:23:54.331Z,97819.25
2022-12-25T12:26:24.960Z,97812.41
2022-12-25T12:28:55.662Z,97812.38
2022-12-25T12:31:24.323Z,97808.59
2022-12-25T12:33:57.408Z,97812.41
2022-12-25T12:36:36.096Z,97806.66
2022-12-25T12:39:07.037Z,97790.97
2022-12-25T12:41:45.879Z,97804.19
2022-12-25T12:44:15.978Z,97798.44
2022-12-25T12:46:52.948Z,97797.38
2022-12-25T12:49:26.755Z,97809.22
2022-12-25T12:52:06.403Z,97812.28
2022-12-25T12:54:54.037Z,97822.47
2022-12-25T12:57:27.007Z,97823.09
2022-12-25T12:59:55.475Z,97820.09
2022-12-25T13:02:48.595Z,97817.81
2022-12-25T13:05:32.219Z,97819.00
2022-12-25T13:08:13.590Z,97806.22
2022-12-25T13:10:48.415Z,97805.63
2022-12-25T13:13:21.561Z,97797.38
2022-12-25T13:15:51.858Z,97804.09
2022-12-25T13:18:20.133Z,97798.56
2022-12-25T13:20:55.282Z,97796.38
2022-12-25T13:23:27.975Z,97792.16
2022-12-25T13:25:59.198Z,97801.94
2022-12-25T13:28:28.900Z,97801.41
2022-12-25T13:31:04.625Z,97800.78
2022-12-25T13:33:32.664Z,97800.69
2022-12-25T13:36:00.606Z,97804.84
2022-12-25T13:38:30.697Z,97801.53
2022-12-25T13:41:17.723Z,97801.16
2022-12-25T13:43:47.361Z,97808.00
2022-12-25T13:46:16.335Z,97807.72
2022-12-25T13:48:44.391Z,97806.69
2022-12-25T13:51:17.369Z,97805.81
2022-12-25T13:53:45.870Z,97811.25
2022-12-25T13:56:17.177Z,97806.44
2022-12-25T13:58:49.490Z,97796.50
2022-12-25T14:01:18.803Z,97793.97
2022-12-25T14:03:48.248Z,97789.53
2022-12-25T14:06:20.595Z,97783.16
2022-12-25T14:08:49.611Z,97792.22
2022-12-25T14:11:22.629Z,97789.38
2022-12-25T14:13:53.545Z,97785.41
2022-12-25T14:16:23.170Z,97777.66
2022-12-25T14:18:53.405Z,97778.22
2022-12-25T14:21:29.626Z,97783.13
2022-12-25T14:23:57.897Z,97780.72
2022-12-25T14:26:30.377Z,97789.97
2022-12-25T14:29:15.650Z,97787.56
2022-12-25T14:31:46.849Z,97782.75
2022-12-25T14:34:19.530Z,97781.19
2022-12-25T14:36:47.977Z,97786.63
2022-12-25T14:39:29.059Z,97786.94
2022-12-25T14:41:58.595Z,97791.28
2022-12-25T14:44:32.474Z,97788.63
2022-12-25T14:47:15.652Z,97787.03
2022-12-25T14:49:44.045Z,97785.44
2022-12-25T14:52:19.048Z,97793.03
2022-12-25T14:54:49.783Z,97790.91
2022-12-25T14:57:29.838Z,97792.53
2022-12-25T15:00:04.320Z,97786.88
2022-12-25T15:02:41.638Z,97781.72
2022-12-25T15:05:32.223Z,97784.97
2022-12-25T15:08:20.564Z,97779.56
2022-12-25T15:11:05.647Z,97782.53
2022-12-25T15:13:35.320Z,97791.47
2022-12-25T15:16:07.812Z,97785.50
2022-12-25T15:18:41.261Z,97785.78
2022-12-25T15:21:17.955Z,97798.75
2022-12-25T15:23:45.941Z,97787.94
2022-12-25T15:26:15.331Z,97787.94
2022-12-25T15:28:45.188Z,97784.44
2022-12-25T15:31:22.066Z,97787.66
2022-12-25T15:33:50.874Z,97783.63
2022-12-25T15:36:18.797Z,97794.44
2022-12-25T15:38:46.635Z,97802.81
2022-12-25T15:41:32.219Z,97799.03
2022-12-25T15:44:02.337Z,97797.66
2022-12-25T15:46:30.559Z,97786.31
2022-12-25T15:48:59.034Z,97782.56
2022-12-25T15:51:27.050Z,97785.25
2022-12-25T15:53:55.033Z,97789.31
2022-12-25T15:56:24.017Z,97791.47
2022-12-25T15:58:51.991Z,97791.75
2022-12-25T16:01:22.228Z,97797.41
2022-12-25T16:03:51.563Z,97800.94
2022-12-25T16:06:20.007Z,97799.81
2022-12-25T16:08:47.941Z,97804.41
2022-12-25T16:11:15.907Z,97812.25
2022-12-25T16:13:44.264Z,97801.72
2022-12-25T16:16:12.405Z,97820.91
2022-12-25T16:18:47.368Z,97819.53
2022-12-25T16:21:18.782Z,97814.97
2022-12-25T16:23:47.030Z,97817.13
2022-12-25T16:26:14.888Z,97824.16
2022-12-25T16:28:42.712Z,97830.91
2022-12-25T16:31:12.250Z,97835.78
2022-12-25T16:33:41.541Z,97833.59
2022-12-25T16:36:10.099Z,97835.22
2022-12-25T16:38:38.926Z,97839.56
2022-12-25T16:41:07.152Z,97836.56
2022-12-25T16:43:34.936Z,97837.13
2022-12-25T16:46:03.064Z,97831.97
2022-12-25T16:48:30.927Z,97839.56
2022-12-25T16:51:00.389Z,97835.50
2022-12-25T16:53:28.568Z,97840.63
2022-12-25T16:56:06.313Z,97845.50
2022-12-25T16:58:34.851Z,97847.13
2022-12-25T17:01:07.760Z,97850.91
2022-12-25T17:03:36.028Z,97854.94
2022-12-25T17:06:06.402Z,97854.41
2022-12-25T17:08:34.225Z,97851.69
2022-12-25T17:11:06.273Z,97851.16
2022-12-25T17:13:34.145Z,97841.44
2022-12-25T17:16:12.123Z,97843.03
2022-12-25T17:18:39.966Z,97824.94
2022-12-25T17:21:09.492Z,97828.72
2022-12-25T17:23:38.868Z,97836.03
2022-12-25T17:26:07.328Z,97823.06
2022-12-25T17:28:35.823Z,97825.50
2022-12-25T17:31:04.737Z,97834.94
2022-12-25T17:33:33.864Z,97830.09
2022-12-25T17:36:06.340Z,97832.50
2022-12-25T17:38:35.876Z,97830.63
2022-12-25T17:41:07.121Z,97829.81
2022-12-25T17:43:37.220Z,97835.22
2022-12-25T17:46:06.978Z,97831.16
2022-12-25T17:48:36.595Z,97831.44
2022-12-25T17:51:05.820Z,97840.91
2022-12-25T17:53:36.600Z,97853.59
2022-12-25T17:56:07.222Z,97857.91
2022-12-25T17:58:35.072Z,97855.50
2022-12-25T18:01:07.473Z,97857.38
2022-12-25T18:03:36.693Z,97851.44
2022-12-25T18:06:04.885Z,97854.13
2022-12-25T18:08:39.025Z,97859.53
2022-12-25T18:11:15.136Z,97854.94
2022-12-25T18:13:43.860Z,97859.81
2022-12-25T18:16:13.606Z,97868.72
2022-12-25T18:18:49.532Z,97861.16
2022-12-25T18:21:20.451Z,97858.19
2022-12-25T18:23:49.351Z,97874.41
2022-12-25T18:26:19.376Z,97876.28
2022-12-25T18:28:47.900Z,97877.91
2022-12-25T18:31:18.015Z,97881.44
2022-12-25T18:33:46.907Z,97878.72
2022-12-25T18:36:16.875Z,97877.91
2022-12-25T18:38:44.739Z,97884.91
2022-12-25T18:41:13.204Z,97880.59
2022-12-25T18:43:52.062Z,97883.81
2022-12-25T18:46:24.224Z,97871.94
2022-12-25T18:48:53.314Z,97864.63
2022-12-25T18:51:21.174Z,97865.97
2022-12-25T18:53:48.974Z,97869.78
2022-12-25T18:56:18.838Z,97871.38
2022-12-25T18:58:48.502Z,97877.88
2022-12-25T19:01:18.705Z,97878.41
2022-12-25T19:03:48.898Z,97870.31
2022-12-25T19:06:21.140Z,97875.72
2022-12-25T19:08:49.598Z,97879.50
2022-12-25T19:11:18.091Z,97881.38
2022-12-25T19:13:47.992Z,97882.72
2022-12-25T19:16:16.656Z,97886.22
2022-12-25T19:18:45.260Z,97891.09
2022-12-25T19:21:13.671Z,97898.97
2022-12-25T19:23:41.996Z,97886.78
2022-12-25T19:26:11.261Z,97887.06
2022-12-25T19:28:40.375Z,97892.19
2022-12-25T19:31:10.961Z,97898.66
2022-12-25T19:33:41.429Z,97897.88
2022-12-25T19:36:12.017Z,97903.28
2022-12-25T19:38:39.901Z,97897.88
2022-12-25T19:41:08.773Z,97908.38
2022-12-25T19:43:38.536Z,97900.00
2022-12-25T19:46:08.768Z,97897.59
2022-12-25T19:48:38.873Z,97903.25
2022-12-25T19:51:16.251Z,97899.47
2022-12-25T19:53:44.102Z,97903.25
2022-12-25T19:56:11.976Z,97902.97
2022-12-25T19:58:40.487Z,97901.38
2022-12-25T20:01:10.244Z,97894.31
2022-12-25T20:03:46.145Z,97899.72
2022-12-25T20:06:19.866Z,97904.56
2022-12-25T20:08:48.429Z,97906.97
2022-12-25T20:11:16.870Z,97903.22
2022-12-25T20:13:45.199Z,97909.16
2022-12-25T20:16:13.642Z,97912.91
2022-12-25T20:18:43.388Z,97910.22
2022-12-25T20:21:14.524Z,97908.31
2022-12-25T20:23:42.634Z,97912.09
2022-12-25T20:26:12.030Z,97918.06
2022-12-25T20:28:43.720Z,97928.03
2022-12-25T20:31:14.947Z,97924.25
2022-12-25T20:33:48.827Z,97922.63
2022-12-25T20:36:18.481Z,97919.94
2022-12-25T20:38:46.665Z,97929.66
2022-12-25T20:41:32.430Z,97917.78
2022-12-25T20:44:01.888Z,97917.50
2022-12-25T20:46:30.148Z,97914.00
2022-12-25T20:48:59.878Z,97910.50
2022-12-25T20:51:28.634Z,97915.63
2022-12-25T20:53:57.079Z,97910.78
2022-12-25T20:56:27.552Z,97914.28
2022-12-25T20:58:56.276Z,97916.16
2022-12-25T21:01:27.844Z,97922.66
2022-12-25T21:03:56.200Z,97924.81
2022-12-25T21:06:25.988Z,97921.31
2022-12-25T21:08:57.569Z,97926.19
2022-12-25T21:11:25.468Z,97927.53
2022-12-25T21:13:53.958Z,97926.72
2022-12-25T21:16:23.500Z,97928.59
2022-12-25T21:18:54.343Z,97932.94
2022-12-25T21:21:23.940Z,97933.44
2022-12-25T21:23:56.404Z,97934.00
2022-12-25T21:26:26.455Z,97939.13
2022-12-25T21:28:57.738Z,97936.13
2022-12-25T21:31:26.492Z,97919.69
2022-12-25T21:33:55.367Z,97929.38
2022-12-25T21:36:27.613Z,97931.00
2022-12-25T21:38:59.157Z,97936.16
2022-12-25T21:41:28.299Z,97936.66
2022-12-25T21:43:56.988Z,97940.41
2022-12-25T21:46:27.974Z,97929.63
2022-12-25T21:48:57.299Z,97929.38
2022-12-25T21:51:44.915Z,97934.75
2022-12-25T21:54:15.896Z,97932.59
2022-12-25T21:56:45.680Z,97928.25
2022-12-25T21:59:16.025Z,97931.81
2022-12-25T22:01:44.476Z,97932.59
2022-12-25T22:04:15.285Z,97943.34
2022-12-25T22:07:00.803Z,97950.97
2022-12-25T22:09:30.629Z,97948.81
2022-12-25T22:12:16.262Z,97965.28
2022-12-25T22:14:56.256Z,97967.47
2022-12-25T22:17:44.994Z,97964.25
2022-12-25T22:20:16.251Z,97964.22
2022-12-25T22:22:44.550Z,97957.22
2022-12-25T22:25:15.135Z,97961.78
2022-12-25T22:27:44.607Z,97964.19
2022-12-25T22:30:15.596Z,97967.97
2022-12-25T22:32:44.139Z,97964.44
2022-12-25T22:35:13.246Z,97969.84
2022-12-25T22:37:42.514Z,97963.13
2022-12-25T22:40:15.070Z,97971.53
2022-12-25T22:42:43.875Z,97965.56
2022-12-25T22:45:12.812Z,97958.84
2022-12-25T22:47:41.461Z,97961.81
2022-12-25T22:50:10.335Z,97965.88
2022-12-25T22:52:38.261Z,97966.66
2022-12-25T22:55:08.426Z,97958.84
2022-12-25T22:57:37.705Z,97962.63
2022-12-25T23:00:09.227Z,97970.69
2022-12-25T23:02:37.531Z,97965.31
2022-12-25T23:05:06.075Z,97970.72
2022-12-25T23:07:34.270Z,97967.22
2022-12-25T23:10:02.122Z,97968.81
2022-12-25T23:12:50.212Z,97974.78
2022-12-25T23:15:19.646Z,97977.44
2022-12-25T23:18:05.442Z,97984.72
2022-12-25T23:20:51.357Z,97986.59
2022-12-25T23:23:36.946Z,97989.00
2022-12-25T23:26:11.725Z,97986.34
2022-12-25T23:28:59.559Z,97992.53
2022-12-25T23:31:31.848Z,97997.13
2022-12-25T23:33:59.975Z,97997.13
2022-12-25T23:36:27.976Z,97998.50
2022-12-25T23:38:56.197Z,98004.16
2022-12-25T23:41:24.853Z,98000.34
2022-12-25T23:43:52.888Z,97991.44
2022-12-25T23:46:21.281Z,98003.09
2022-12-25T23:48:50.928Z,98015.19
2022-12-25T23:51:19.214Z,98009.00
2022-12-25T23:53:47.002Z,98010.72
2022-12-25T23:56:15.381Z,98000.16
2022-12-25T23:58:45.289Z,98002.31
